createdAt,value
2019-03-26T00:00:54.447Z,8.53
2019-03-26T00:03:26.067Z,8.50
2019-03-26T00:05:57.838Z,7.97
2019-03-26T00:08:29.440Z,8.67
2019-03-26T00:11:00.810Z,7.40
2019-03-26T00:13:32.473Z,6.97
2019-03-26T00:16:06.586Z,7.13
2019-03-26T00:18:38.130Z,7.17
2019-03-26T00:21:09.398Z,6.67
2019-03-26T00:23:40.622Z,6.70
2019-03-26T00:26:12.521Z,7.10
2019-03-26T00:28:43.922Z,6.80
2019-03-26T00:31:15.277Z,6.60
2019-03-26T00:33:46.649Z,6.20
2019-03-26T00:36:17.995Z,6.17
2019-03-26T00:38:49.597Z,6.63
2019-03-26T00:41:21.270Z,6.67
2019-03-26T00:43:52.837Z,6.40
2019-03-26T00:46:24.185Z,6.60
2019-03-26T00:48:55.567Z,7.30
2019-03-26T00:51:27.198Z,7.10
2019-03-26T00:54:01.756Z,7.17
2019-03-26T00:56:33.163Z,6.93
2019-03-26T00:59:04.824Z,7.50
2019-03-26T01:01:36.309Z,7.97
2019-03-26T01:04:08.576Z,7.00
2019-03-26T01:06:39.744Z,7.13
2019-03-26T01:09:11.213Z,7.13
2019-03-26T01:11:42.775Z,7.57
2019-03-26T01:14:14.221Z,7.07
2019-03-26T01:16:45.857Z,7.17
2019-03-26T01:19:17.307Z,7.20
2019-03-26T01:21:48.730Z,7.40
2019-03-26T01:24:20.176Z,7.23
2019-03-26T01:26:51.603Z,7.57
2019-03-26T01:29:23.298Z,7.73
2019-03-26T01:31:54.913Z,7.30
2019-03-26T01:34:26.385Z,7.30
2019-03-26T01:36:58.021Z,6.97
2019-03-26T01:39:29.848Z,7.20
2019-03-26T01:42:01.123Z,7.13
2019-03-26T01:44:32.350Z,6.60
2019-03-26T01:47:03.618Z,6.80
2019-03-26T01:49:34.750Z,7.17
2019-03-26T01:52:05.984Z,7.33
2019-03-26T01:54:37.271Z,7.50
2019-03-26T01:57:08.547Z,6.53
2019-03-26T01:59:39.814Z,7.30
2019-03-26T02:02:11.057Z,7.20
2019-03-26T02:04:42.310Z,7.93
2019-03-26T02:07:13.544Z,7.57
2019-03-26T02:09:44.773Z,8.00
2019-03-26T02:12:16.126Z,7.80
2019-03-26T02:14:47.340Z,7.70
2019-03-26T02:17:18.536Z,7.33
2019-03-26T02:19:49.718Z,7.07
2019-03-26T02:22:20.999Z,7.47
2019-03-26T02:24:52.300Z,7.87
2019-03-26T02:27:23.605Z,7.40
2019-03-26T02:29:54.769Z,7.43
2019-03-26T02:32:26.081Z,8.10
2019-03-26T02:34:57.305Z,7.77
2019-03-26T02:37:28.605Z,8.00
2019-03-26T02:39:59.770Z,8.53
2019-03-26T02:42:30.970Z,7.13
2019-03-26T02:45:02.237Z,7.70
2019-03-26T02:47:33.494Z,8.77
2019-03-26T02:50:04.814Z,7.77
2019-03-26T02:52:36.149Z,7.33
2019-03-26T02:55:07.987Z,7.60
2019-03-26T02:57:39.229Z,7.43
2019-03-26T03:00:11.463Z,8.63
2019-03-26T03:02:42.676Z,7.77
2019-03-26T03:05:14.684Z,7.43
2019-03-26T03:07:46.154Z,7.77
2019-03-26T03:10:17.751Z,7.77
2019-03-26T03:12:49.009Z,8.43
2019-03-26T03:15:20.246Z,8.00
2019-03-26T03:17:51.419Z,8.33
2019-03-26T03:20:22.705Z,7.70
2019-03-26T03:22:54.029Z,7.80
2019-03-26T03:25:25.380Z,7.87
2019-03-26T03:27:57.004Z,7.57
2019-03-26T03:30:28.125Z,7.97
2019-03-26T03:32:59.350Z,7.77
2019-03-26T03:35:30.601Z,8.10
2019-03-26T03:38:01.853Z,8.43
2019-03-26T03:40:33.083Z,8.60
2019-03-26T03:43:04.327Z,8.57
2019-03-26T03:45:35.523Z,8.20
2019-03-26T03:48:06.840Z,9.30
2019-03-26T03:50:38.937Z,8.47
2019-03-26T03:53:11.078Z,8.40
2019-03-26T03:55:42.302Z,8.57
2019-03-26T03:58:13.553Z,8.10
2019-03-26T04:00:44.803Z,8.97
2019-03-26T04:03:15.974Z,8.73
2019-03-26T04:05:47.980Z,8.53
2019-03-26T04:08:19.355Z,7.87
2019-03-26T04:10:50.672Z,8.40
2019-03-26T04:13:21.985Z,8.13
2019-03-26T04:15:53.229Z,9.13
2019-03-26T04:18:24.365Z,9.20
2019-03-26T04:20:55.536Z,8.67
2019-03-26T04:23:26.785Z,9.47
2019-03-26T04:25:58.086Z,9.30
2019-03-26T04:28:29.374Z,9.50
2019-03-26T04:31:00.571Z,8.33
2019-03-26T04:33:31.829Z,10.13
2019-03-26T04:36:03.084Z,10.30
2019-03-26T04:38:34.438Z,8.63
2019-03-26T04:41:05.760Z,8.80
2019-03-26T04:43:37.183Z,9.20
2019-03-26T04:46:08.625Z,9.80
2019-03-26T04:48:39.776Z,9.60
2019-03-26T04:51:11.105Z,10.40
2019-03-26T04:53:42.527Z,10.20
2019-03-26T04:56:13.838Z,9.60
2019-03-26T04:58:45.150Z,9.53
2019-03-26T05:01:16.404Z,9.37
2019-03-26T05:03:47.559Z,10.30
2019-03-26T05:06:18.998Z,10.23
2019-03-26T05:08:50.314Z,10.00
2019-03-26T05:11:23.171Z,10.00
2019-03-26T05:13:54.576Z,10.30
2019-03-26T05:16:25.834Z,11.33
2019-03-26T05:18:57.379Z,10.33
2019-03-26T05:21:28.671Z,10.80
2019-03-26T05:24:00.067Z,10.00
2019-03-26T05:26:31.411Z,9.87
2019-03-26T05:29:02.705Z,10.80
2019-03-26T05:31:34.100Z,10.40
2019-03-26T05:34:05.486Z,11.27
2019-03-26T05:36:36.703Z,9.90
2019-03-26T05:39:09.068Z,11.03
2019-03-26T05:41:40.288Z,9.93
2019-03-26T05:44:11.566Z,9.67
2019-03-26T05:46:42.780Z,10.47
2019-03-26T05:49:14.088Z,9.53
2019-03-26T05:51:45.273Z,9.47
2019-03-26T05:54:16.423Z,9.03
2019-03-26T05:56:47.722Z,10.00
2019-03-26T05:59:18.921Z,10.23
2019-03-26T06:01:50.136Z,9.60
2019-03-26T06:04:21.474Z,9.13
2019-03-26T06:07:04.162Z,8.40
2019-03-26T06:09:25.796Z,9.60
2019-03-26T06:11:57.178Z,8.80
2019-03-26T06:14:28.392Z,7.83
2019-03-26T06:16:59.686Z,8.87
2019-03-26T06:19:30.959Z,8.17
2019-03-26T06:22:02.275Z,7.70
2019-03-26T06:24:33.550Z,7.87
2019-03-26T06:27:04.836Z,7.23
2019-03-26T06:29:36.140Z,7.70
2019-03-26T06:32:07.356Z,7.40
2019-03-26T06:34:38.585Z,7.33
2019-03-26T06:37:17.763Z,7.83
2019-03-26T06:39:42.608Z,7.10
2019-03-26T06:42:13.925Z,7.93
2019-03-26T06:44:45.187Z,7.67
2019-03-26T06:47:16.490Z,7.17
2019-03-26T06:49:47.717Z,7.50
2019-03-26T06:52:18.987Z,7.90
2019-03-26T06:54:51.718Z,7.60
2019-03-26T06:57:35.065Z,7.33
2019-03-26T06:59:56.463Z,6.60
2019-03-26T07:02:27.779Z,7.17
2019-03-26T07:04:59.040Z,7.57
2019-03-26T07:07:31.697Z,7.33
2019-03-26T07:10:03.295Z,7.23
2019-03-26T07:12:36.494Z,7.33
2019-03-26T07:15:08.631Z,6.93
2019-03-26T07:17:39.926Z,7.47
2019-03-26T07:20:11.789Z,7.53
2019-03-26T07:22:43.040Z,6.37
2019-03-26T07:25:14.354Z,6.17
2019-03-26T07:28:04.400Z,5.93
2019-03-26T07:30:43.460Z,6.40
2019-03-26T07:33:14.765Z,6.17
2019-03-26T07:35:45.989Z,6.30
2019-03-26T07:38:17.264Z,6.00
2019-03-26T07:40:48.498Z,6.07
2019-03-26T07:43:19.726Z,5.70
2019-03-26T07:45:51.077Z,5.53
2019-03-26T07:48:22.238Z,5.20
2019-03-26T07:50:53.527Z,6.63
2019-03-26T07:53:24.865Z,7.20
2019-03-26T07:55:56.087Z,5.67
2019-03-26T07:58:27.353Z,5.73
2019-03-26T08:00:58.552Z,6.40
2019-03-26T08:03:29.802Z,6.47
2019-03-26T08:06:01.023Z,5.23
2019-03-26T08:08:32.336Z,5.20
2019-03-26T08:11:03.557Z,5.70
2019-03-26T08:13:34.757Z,5.43
2019-03-26T08:16:06.019Z,5.93
2019-03-26T08:18:37.239Z,6.97
2019-03-26T08:21:08.492Z,5.20
2019-03-26T08:23:39.745Z,4.40
2019-03-26T08:26:11.083Z,5.67
2019-03-26T08:28:42.218Z,4.63
2019-03-26T08:31:13.386Z,4.30
2019-03-26T08:33:44.680Z,4.90
2019-03-26T08:36:15.789Z,3.97
2019-03-26T08:38:47.014Z,4.20
2019-03-26T08:41:18.330Z,4.47
2019-03-26T08:43:49.445Z,5.50
2019-03-26T08:46:20.717Z,4.70
2019-03-26T08:48:51.880Z,4.60
2019-03-26T08:51:23.094Z,4.60
2019-03-26T08:53:54.329Z,4.93
2019-03-26T08:56:25.575Z,4.17
2019-03-26T08:58:56.844Z,4.33
2019-03-26T09:01:28.029Z,4.23
2019-03-26T09:03:59.287Z,4.33
2019-03-26T09:06:30.581Z,4.07
2019-03-26T09:09:01.848Z,4.90
2019-03-26T09:11:33.078Z,4.30
2019-03-26T09:14:04.274Z,4.53
2019-03-26T09:16:35.464Z,4.00
2019-03-26T09:19:06.688Z,4.10
2019-03-26T09:21:37.933Z,3.93
2019-03-26T09:24:09.216Z,3.40
2019-03-26T09:26:40.501Z,3.70
2019-03-26T09:29:11.727Z,3.37
2019-03-26T09:31:43.017Z,4.00
2019-03-26T09:34:14.245Z,3.97
2019-03-26T09:36:45.409Z,3.40
2019-03-26T09:39:16.736Z,3.13
2019-03-26T09:41:47.994Z,4.07
2019-03-26T09:44:19.208Z,3.17
2019-03-26T09:46:50.442Z,3.60
2019-03-26T09:49:21.779Z,4.13
2019-03-26T09:51:53.014Z,3.87
2019-03-26T09:54:24.553Z,3.67
2019-03-26T09:56:55.881Z,3.73
2019-03-26T09:59:27.160Z,3.53
2019-03-26T10:01:58.491Z,3.77
2019-03-26T10:04:29.695Z,3.73
2019-03-26T10:07:01.114Z,3.80
2019-03-26T10:09:32.442Z,3.60
2019-03-26T10:12:03.715Z,3.80
2019-03-26T10:14:34.931Z,3.60
2019-03-26T10:17:06.218Z,3.27
2019-03-26T10:19:37.499Z,3.57
2019-03-26T10:22:08.641Z,3.30
2019-03-26T10:24:39.786Z,3.40
2019-03-26T10:27:10.906Z,3.10
2019-03-26T10:29:42.175Z,3.37
2019-03-26T10:32:13.526Z,2.67
2019-03-26T10:34:44.751Z,2.80
2019-03-26T10:37:16.164Z,2.50
2019-03-26T10:39:47.361Z,3.70
2019-03-26T10:42:18.552Z,2.40
2019-03-26T10:44:49.838Z,2.73
2019-03-26T10:47:21.147Z,2.83
2019-03-26T10:49:52.329Z,3.10
2019-03-26T10:52:23.635Z,3.23
2019-03-26T10:54:54.932Z,3.50
2019-03-26T10:57:26.428Z,3.17
2019-03-26T10:59:57.715Z,3.70
2019-03-26T11:02:29.017Z,3.90
2019-03-26T11:05:00.389Z,3.37
2019-03-26T11:07:31.581Z,3.63
2019-03-26T11:10:02.842Z,3.23
2019-03-26T11:12:34.079Z,4.00
2019-03-26T11:15:06.690Z,3.33
2019-03-26T11:17:38.014Z,3.60
2019-03-26T11:20:09.997Z,3.20
2019-03-26T11:22:41.309Z,3.17
2019-03-26T11:25:12.844Z,3.60
2019-03-26T11:27:44.221Z,3.23
2019-03-26T11:30:15.567Z,3.47
2019-03-26T11:32:47.006Z,3.67
2019-03-26T11:35:18.340Z,4.40
2019-03-26T11:37:49.665Z,4.53
2019-03-26T11:40:21.411Z,3.83
2019-03-26T11:42:52.824Z,3.90
2019-03-26T11:45:24.188Z,4.03
2019-03-26T11:47:55.471Z,3.60
2019-03-26T11:50:26.727Z,3.20
2019-03-26T11:52:58.051Z,3.53
2019-03-26T11:55:29.364Z,3.60
2019-03-26T11:58:00.671Z,3.10
2019-03-26T12:00:34.783Z,4.27
2019-03-26T12:03:06.091Z,3.77
2019-03-26T12:05:37.478Z,3.50
2019-03-26T12:08:08.861Z,3.23
2019-03-26T12:10:40.258Z,3.70
2019-03-26T12:13:11.646Z,4.10
2019-03-26T12:15:42.913Z,4.30
2019-03-26T12:18:14.141Z,4.40
2019-03-26T12:20:45.493Z,4.30
2019-03-26T12:23:16.779Z,4.37
2019-03-26T12:25:48.040Z,3.60
2019-03-26T12:28:19.304Z,4.57
2019-03-26T12:30:50.646Z,4.27
2019-03-26T12:33:22.017Z,3.70
2019-03-26T12:35:53.199Z,3.90
2019-03-26T12:38:24.752Z,3.30
2019-03-26T12:40:56.195Z,3.47
2019-03-26T12:43:27.440Z,3.40
2019-03-26T12:46:01.713Z,3.40
2019-03-26T12:48:31.781Z,3.23
2019-03-26T12:51:03.113Z,3.70
2019-03-26T12:53:34.349Z,3.90
2019-03-26T12:56:05.612Z,4.30
2019-03-26T12:58:36.961Z,5.30
2019-03-26T13:01:08.294Z,4.30
2019-03-26T13:03:39.491Z,4.33
2019-03-26T13:06:10.768Z,4.00
2019-03-26T13:08:42.255Z,5.17
2019-03-26T13:11:16.819Z,4.63
2019-03-26T13:13:46.577Z,4.10
2019-03-26T13:16:17.841Z,4.20
2019-03-26T13:18:49.154Z,3.87
2019-03-26T13:21:20.303Z,4.13
2019-03-26T13:23:51.518Z,4.03
2019-03-26T13:26:22.806Z,3.47
2019-03-26T13:28:54.013Z,3.73
2019-03-26T13:31:25.328Z,3.30
2019-03-26T13:33:56.708Z,3.90
2019-03-26T13:36:27.960Z,3.80
2019-03-26T13:38:59.204Z,4.40
2019-03-26T13:41:30.441Z,3.70
2019-03-26T13:44:01.737Z,3.73
2019-03-26T13:46:33.034Z,3.63
2019-03-26T13:49:04.265Z,3.47
2019-03-26T13:51:37.128Z,5.07
2019-03-26T13:54:08.631Z,4.00
2019-03-26T13:56:39.891Z,3.83
2019-03-26T13:59:11.312Z,3.93
2019-03-26T14:01:43.159Z,3.77
2019-03-26T14:04:14.413Z,3.93
2019-03-26T14:06:45.679Z,4.40
2019-03-26T14:09:19.936Z,4.60
2019-03-26T14:11:57.608Z,4.00
2019-03-26T14:14:27.594Z,3.63
2019-03-26T14:17:05.492Z,3.77
2019-03-26T14:19:40.876Z,3.97
2019-03-26T14:22:21.369Z,4.07
2019-03-26T14:25:08.345Z,4.30
2019-03-26T14:27:45.131Z,4.30
2019-03-26T14:30:23.801Z,4.33
2019-03-26T14:33:02.798Z,4.13
2019-03-26T14:35:43.395Z,3.60
2019-03-26T14:38:26.053Z,4.43
2019-03-26T14:41:08.677Z,4.20
2019-03-26T14:43:43.764Z,4.30
2019-03-26T14:46:18.964Z,4.40
2019-03-26T14:48:57.482Z,3.90
2019-03-26T14:51:31.322Z,4.00
2019-03-26T14:54:25.265Z,3.77
2019-03-26T14:56:57.646Z,4.27
2019-03-26T14:59:30.812Z,4.00
2019-03-26T15:02:07.925Z,3.83
2019-03-26T15:04:44.647Z,3.60
2019-03-26T15:07:17.966Z,3.63
2019-03-26T15:09:50.240Z,3.70
2019-03-26T15:12:21.488Z,3.17
2019-03-26T15:14:55.706Z,3.90
2019-03-26T15:17:30.588Z,3.60
2019-03-26T15:20:03.295Z,4.20
2019-03-26T15:22:35.275Z,3.97
2019-03-26T15:25:07.743Z,4.10
2019-03-26T15:27:39.805Z,3.83
2019-03-26T15:30:12.475Z,3.63
2019-03-26T15:32:44.359Z,3.60
2019-03-26T15:35:18.715Z,4.00
2019-03-26T15:37:54.212Z,4.00
2019-03-26T15:40:30.218Z,3.90
2019-03-26T15:43:04.583Z,3.87
2019-03-26T15:45:39.979Z,4.40
2019-03-26T15:48:23.569Z,4.07
2019-03-26T15:50:56.141Z,3.73
2019-03-26T15:53:31.726Z,4.47
2019-03-26T15:56:09.679Z,4.33
2019-03-26T15:58:42.006Z,4.80
2019-03-26T16:01:13.777Z,4.37
2019-03-26T16:03:48.159Z,3.97
2019-03-26T16:06:19.448Z,4.33
2019-03-26T16:08:57.180Z,3.93
2019-03-26T16:11:36.083Z,4.30
2019-03-26T16:14:06.630Z,4.40
2019-03-26T16:16:42.263Z,4.43
2019-03-26T16:19:14.239Z,4.50
2019-03-26T16:21:46.595Z,4.17
2019-03-26T16:24:20.862Z,4.97
2019-03-26T16:26:52.369Z,4.47
2019-03-26T16:29:26.033Z,4.93
2019-03-26T16:31:58.179Z,4.40
2019-03-26T16:34:30.323Z,4.33
2019-03-26T16:37:01.542Z,4.70
2019-03-26T16:39:32.689Z,4.83
2019-03-26T16:42:03.981Z,5.63
2019-03-26T16:44:35.192Z,5.77
2019-03-26T16:47:06.398Z,6.33
2019-03-26T16:49:37.666Z,7.17
2019-03-26T16:52:09.838Z,6.37
2019-03-26T16:54:41.076Z,4.77
2019-03-26T16:57:12.323Z,4.57
2019-03-26T16:59:43.567Z,4.77
2019-03-26T17:02:14.826Z,4.70
2019-03-26T17:04:46.938Z,4.67
2019-03-26T17:07:18.309Z,5.33
2019-03-26T17:09:49.512Z,5.20
2019-03-26T17:12:20.701Z,4.87
2019-03-26T17:14:51.940Z,5.53
2019-03-26T17:17:23.189Z,4.83
2019-03-26T17:19:54.469Z,5.33
2019-03-26T17:22:25.759Z,5.50
2019-03-26T17:24:57.067Z,4.73
2019-03-26T17:27:29.258Z,4.83
2019-03-26T17:30:00.448Z,4.57
2019-03-26T17:32:31.838Z,5.73
2019-03-26T17:35:03.232Z,5.70
2019-03-26T17:37:34.470Z,5.30
2019-03-26T17:40:06.244Z,5.70
2019-03-26T17:42:37.428Z,5.83
2019-03-26T17:45:09.593Z,6.20
2019-03-26T17:47:40.852Z,6.40
2019-03-26T17:50:13.263Z,6.00
2019-03-26T17:52:44.474Z,5.70
2019-03-26T17:55:15.682Z,4.93
2019-03-26T17:57:47.016Z,5.30
2019-03-26T18:00:21.833Z,5.00
2019-03-26T18:02:53.098Z,4.70
2019-03-26T18:05:29.304Z,4.93
2019-03-26T18:08:00.610Z,5.50
2019-03-26T18:10:31.865Z,4.93
2019-03-26T18:13:03.046Z,5.67
2019-03-26T18:15:34.416Z,5.73
2019-03-26T18:18:05.683Z,5.07
2019-03-26T18:20:36.927Z,5.30
2019-03-26T18:23:08.187Z,5.57
2019-03-26T18:25:39.476Z,5.33
2019-03-26T18:28:10.699Z,5.97
2019-03-26T18:30:42.008Z,5.60
2019-03-26T18:33:13.395Z,5.80
2019-03-26T18:35:44.723Z,5.33
2019-03-26T18:38:16.063Z,5.60
2019-03-26T18:40:47.195Z,6.10
2019-03-26T18:43:18.477Z,5.93
2019-03-26T18:45:49.814Z,5.40
2019-03-26T18:48:21.108Z,5.50
2019-03-26T18:50:52.331Z,5.80
2019-03-26T18:53:23.600Z,5.60
2019-03-26T18:55:54.855Z,5.77
2019-03-26T18:58:26.148Z,5.90
2019-03-26T19:00:57.549Z,6.73
2019-03-26T19:03:28.691Z,6.13
2019-03-26T19:06:00.019Z,6.43
2019-03-26T19:08:31.258Z,5.90
2019-03-26T19:11:02.557Z,5.83
2019-03-26T19:13:33.853Z,5.60
2019-03-26T19:16:05.158Z,5.17
2019-03-26T19:18:36.375Z,5.83
2019-03-26T19:21:08.904Z,5.83
2019-03-26T19:23:41.153Z,5.57
2019-03-26T19:26:12.612Z,5.50
2019-03-26T19:28:43.921Z,5.20
2019-03-26T19:31:15.379Z,5.00
2019-03-26T19:33:46.944Z,5.23
2019-03-26T19:36:18.174Z,5.83
2019-03-26T19:38:49.408Z,4.80
2019-03-26T19:41:20.747Z,4.70
2019-03-26T19:43:52.105Z,4.60
2019-03-26T19:46:23.350Z,4.20
2019-03-26T19:48:54.664Z,3.90
2019-03-26T19:51:28.175Z,4.40
2019-03-26T19:53:59.464Z,5.07
2019-03-26T19:56:30.707Z,5.23
2019-03-26T19:59:02.230Z,4.87
2019-03-26T20:01:33.702Z,5.20
2019-03-26T20:04:04.929Z,5.40
2019-03-26T20:06:36.191Z,4.33
2019-03-26T20:09:08.953Z,5.07
2019-03-26T20:11:40.203Z,5.67
2019-03-26T20:14:11.504Z,5.10
2019-03-26T20:16:42.747Z,5.47
2019-03-26T20:19:14.020Z,5.40
2019-03-26T20:21:45.329Z,5.27
2019-03-26T20:24:16.766Z,5.90
2019-03-26T20:26:47.991Z,5.87
2019-03-26T20:29:19.259Z,6.60
2019-03-26T20:31:52.388Z,6.20
2019-03-26T20:34:23.680Z,7.10
2019-03-26T20:36:55.808Z,5.37
2019-03-26T20:39:27.039Z,5.63
2019-03-26T20:41:58.312Z,5.50
2019-03-26T20:44:30.557Z,5.70
2019-03-26T20:47:01.860Z,5.03
2019-03-26T20:49:33.156Z,4.70
2019-03-26T20:52:04.445Z,5.10
2019-03-26T20:54:35.738Z,5.17
2019-03-26T20:57:06.973Z,6.03
2019-03-26T20:59:38.348Z,5.10
2019-03-26T21:02:09.590Z,4.80
2019-03-26T21:04:42.207Z,5.20
2019-03-26T21:07:13.600Z,4.83
2019-03-26T21:09:44.986Z,5.23
2019-03-26T21:12:17.201Z,5.87
2019-03-26T21:14:48.781Z,4.87
2019-03-26T21:17:20.082Z,5.33
2019-03-26T21:19:52.394Z,5.00
2019-03-26T21:22:23.669Z,5.37
2019-03-26T21:24:57.196Z,5.70
2019-03-26T21:27:28.473Z,6.10
2019-03-26T21:30:10.095Z,6.87
2019-03-26T21:32:32.828Z,6.40
2019-03-26T21:35:06.965Z,6.53
2019-03-26T21:37:37.860Z,5.90
2019-03-26T21:40:09.930Z,6.23
2019-03-26T21:42:41.138Z,6.23
2019-03-26T21:45:13.061Z,5.93
2019-03-26T21:47:44.316Z,6.40
2019-03-26T21:50:16.614Z,6.43
2019-03-26T21:52:47.869Z,6.77
2019-03-26T21:55:19.080Z,6.03
2019-03-26T21:57:50.411Z,5.97
2019-03-26T22:00:21.776Z,6.77
2019-03-26T22:02:53.042Z,6.47
2019-03-26T22:05:24.333Z,6.37
2019-03-26T22:07:55.621Z,7.27
2019-03-26T22:10:26.925Z,7.70
2019-03-26T22:12:58.134Z,6.10
2019-03-26T22:15:29.342Z,6.90
2019-03-26T22:18:00.639Z,6.67
2019-03-26T22:20:31.839Z,8.30
2019-03-26T22:23:03.159Z,8.23
2019-03-26T22:25:34.583Z,8.10
2019-03-26T22:28:05.856Z,7.50
2019-03-26T22:30:36.987Z,9.53
2019-03-26T22:33:08.086Z,8.43
2019-03-26T22:35:58.117Z,7.37
2019-03-26T22:38:29.381Z,8.00
2019-03-26T22:41:00.620Z,7.57
2019-03-26T22:43:31.776Z,8.03
2019-03-26T22:46:03.108Z,6.57
2019-03-26T22:48:34.360Z,6.60
2019-03-26T22:51:05.716Z,7.30
2019-03-26T22:53:36.852Z,8.83
2019-03-26T22:56:08.292Z,9.20
2019-03-26T22:58:39.521Z,10.10
2019-03-26T23:01:10.881Z,9.27
2019-03-26T23:03:42.174Z,9.57
2019-03-26T23:06:13.450Z,12.33
2019-03-26T23:08:44.665Z,9.80
2019-03-26T23:11:15.968Z,9.43
2019-03-26T23:13:47.233Z,11.17
2019-03-26T23:16:18.525Z,10.10
2019-03-26T23:18:49.803Z,11.00
2019-03-26T23:21:20.983Z,12.00
2019-03-26T23:23:52.237Z,12.93
2019-03-26T23:26:23.534Z,12.83
2019-03-26T23:28:54.732Z,11.57
2019-03-26T23:31:25.973Z,13.27
2019-03-26T23:33:57.269Z,10.90
2019-03-26T23:36:28.467Z,11.03
2019-03-26T23:38:59.731Z,13.50
2019-03-26T23:41:30.862Z,10.13
2019-03-26T23:44:02.007Z,11.17
2019-03-26T23:46:33.315Z,10.47
2019-03-26T23:49:04.598Z,12.40
2019-03-26T23:51:35.744Z,11.00
2019-03-26T23:54:06.859Z,16.30
2019-03-26T23:56:38.100Z,11.57
2019-03-26T23:59:09.285Z,14.07
